sensor_id;sensor_type;location;lat;lon;timestamp;temperature;humidity
13322;DHT22;6730;46.248;6.930;2023-05-13T00:00:41;12.70;99.90
13322;DHT22;6730;46.248;6.930;2023-05-13T00:03:07;12.60;99.90
13322;DHT22;6730;46.248;6.930;2023-05-13T00:05:32;12.60;99.90
13322;DHT22;6730;46.248;6.930;2023-05-13T00:07:58;12.60;99.90
13322;DHT22;6730;46.248;6.930;2023-05-13T00:10:32;12.50;99.90
13322;DHT22;6730;46.248;6.930;2023-05-13T00:12:58;12.70;99.90
13322;DHT22;6730;46.248;6.930;2023-05-13T00:15:23;12.70;99.90
13322;DHT22;6730;46.248;6.930;2023-05-13T00:17:49;12.60;99.90
13322;DHT22;6730;46.248;6.930;2023-05-13T00:20:15;12.50;99.90
13322;DHT22;6730;46.248;6.930;2023-05-13T00:22:40;12.60;99.90
13322;DHT22;6730;46.248;6.930;2023-05-13T00:25:06;12.60;99.90
13322;DHT22;6730;46.248;6.930;2023-05-13T00:27:32;12.70;99.90
13322;DHT22;6730;46.248;6.930;2023-05-13T00:29:58;12.70;99.90
13322;DHT22;6730;46.248;6.930;2023-05-13T00:32:24;12.60;99.90
13322;DHT22;6730;46.248;6.930;2023-05-13T00:34:50;12.60;99.90
13322;DHT22;6730;46.248;6.930;2023-05-13T00:37:15;12.60;99.90
13322;DHT22;6730;46.248;6.930;2023-05-13T00:39:41;12.70;99.90
13322;DHT22;6730;46.248;6.930;2023-05-13T00:42:07;12.60;99.90
13322;DHT22;6730;46.248;6.930;2023-05-13T00:44:35;12.50;99.90
13322;DHT22;6730;46.248;6.930;2023-05-13T00:47:01;12.40;99.90
13322;DHT22;6730;46.248;6.930;2023-05-13T00:49:27;12.40;99.90
13322;DHT22;6730;46.248;6.930;2023-05-13T00:51:53;12.50;99.90
13322;DHT22;6730;46.248;6.930;2023-05-13T00:54:19;12.50;99.90
13322;DHT22;6730;46.248;6.930;2023-05-13T00:56:45;12.40;99.90
13322;DHT22;6730;46.248;6.930;2023-05-13T00:59:11;12.40;99.90
13322;DHT22;6730;46.248;6.930;2023-05-13T01:07:13;12.30;99.90
13322;DHT22;6730;46.248;6.930;2023-05-13T01:12:48;12.20;99.90
13322;DHT22;6730;46.248;6.930;2023-05-13T01:15:21;12.30;99.90
13322;DHT22;6730;46.248;6.930;2023-05-13T01:18:03;12.30;99.90
13322;DHT22;6730;46.248;6.930;2023-05-13T01:20:30;12.30;99.90
13322;DHT22;6730;46.248;6.930;2023-05-13T01:22:57;12.30;99.90
13322;DHT22;6730;46.248;6.930;2023-05-13T01:25:23;12.20;99.90
13322;DHT22;6730;46.248;6.930;2023-05-13T01:27:50;12.10;99.90
13322;DHT22;6730;46.248;6.930;2023-05-13T01:30:16;12.10;99.90
13322;DHT22;6730;46.248;6.930;2023-05-13T01:32:43;12.20;99.90
13322;DHT22;6730;46.248;6.930;2023-05-13T01:35:09;12.10;99.90
13322;DHT22;6730;46.248;6.930;2023-05-13T01:37:36;12.20;99.90
13322;DHT22;6730;46.248;6.930;2023-05-13T01:40:05;12.20;99.90
13322;DHT22;6730;46.248;6.930;2023-05-13T01:42:32;12.30;99.90
13322;DHT22;6730;46.248;6.930;2023-05-13T01:44:59;12.30;99.90
13322;DHT22;6730;46.248;6.930;2023-05-13T01:47:25;12.10;99.90
13322;DHT22;6730;46.248;6.930;2023-05-13T01:49:51;12.00;99.90
13322;DHT22;6730;46.248;6.930;2023-05-13T01:52:17;12.00;99.90
13322;DHT22;6730;46.248;6.930;2023-05-13T01:54:43;11.90;99.90
13322;DHT22;6730;46.248;6.930;2023-05-13T01:57:08;11.90;99.90
13322;DHT22;6730;46.248;6.930;2023-05-13T01:59:34;11.90;99.90
13322;DHT22;6730;46.248;6.930;2023-05-13T02:02:00;12.00;99.90
13322;DHT22;6730;46.248;6.930;2023-05-13T02:04:25;11.90;99.90
13322;DHT22;6730;46.248;6.930;2023-05-13T02:06:51;11.90;99.90
13322;DHT22;6730;46.248;6.930;2023-05-13T02:09:17;11.90;99.90
13322;DHT22;6730;46.248;6.930;2023-05-13T02:11:44;11.80;99.90
13322;DHT22;6730;46.248;6.930;2023-05-13T02:14:10;11.80;99.90
13322;DHT22;6730;46.248;6.930;2023-05-13T02:16:36;11.80;99.90
13322;DHT22;6730;46.248;6.930;2023-05-13T02:19:01;11.90;99.90
13322;DHT22;6730;46.248;6.930;2023-05-13T02:21:27;11.80;99.90
13322;DHT22;6730;46.248;6.930;2023-05-13T02:23:53;11.80;99.90
13322;DHT22;6730;46.248;6.930;2023-05-13T02:26:18;11.90;99.90
13322;DHT22;6730;46.248;6.930;2023-05-13T02:28:44;11.90;99.90
13322;DHT22;6730;46.248;6.930;2023-05-13T02:31:10;11.90;99.90
13322;DHT22;6730;46.248;6.930;2023-05-13T02:33:35;11.90;99.90
13322;DHT22;6730;46.248;6.930;2023-05-13T02:36:01;11.90;99.90
13322;DHT22;6730;46.248;6.930;2023-05-13T02:38:27;11.80;99.90
13322;DHT22;6730;46.248;6.930;2023-05-13T02:40:52;11.60;99.90
13322;DHT22;6730;46.248;6.930;2023-05-13T02:43:18;11.60;99.90
13322;DHT22;6730;46.248;6.930;2023-05-13T02:45:45;11.30;99.90
13322;DHT22;6730;46.248;6.930;2023-05-13T02:48:11;11.50;99.90
13322;DHT22;6730;46.248;6.930;2023-05-13T02:50:37;11.60;99.90
13322;DHT22;6730;46.248;6.930;2023-05-13T02:53:03;11.70;99.90
13322;DHT22;6730;46.248;6.930;2023-05-13T02:55:29;11.80;99.90
13322;DHT22;6730;46.248;6.930;2023-05-13T02:57:55;11.80;99.90
13322;DHT22;6730;46.248;6.930;2023-05-13T03:00:21;11.80;99.90
13322;DHT22;6730;46.248;6.930;2023-05-13T03:02:47;12.00;99.90
13322;DHT22;6730;46.248;6.930;2023-05-13T03:05:12;12.00;99.90
13322;DHT22;6730;46.248;6.930;2023-05-13T03:07:38;12.10;99.90
13322;DHT22;6730;46.248;6.930;2023-05-13T03:10:04;12.10;99.90
13322;DHT22;6730;46.248;6.930;2023-05-13T03:12:30;12.00;99.90
13322;DHT22;6730;46.248;6.930;2023-05-13T03:14:56;11.90;99.90
13322;DHT22;6730;46.248;6.930;2023-05-13T03:17:21;12.00;99.90
13322;DHT22;6730;46.248;6.930;2023-05-13T03:19:47;12.10;99.90
13322;DHT22;6730;46.248;6.930;2023-05-13T03:22:13;12.10;99.90
13322;DHT22;6730;46.248;6.930;2023-05-13T03:24:38;12.30;99.90
13322;DHT22;6730;46.248;6.930;2023-05-13T03:27:04;12.40;99.90
13322;DHT22;6730;46.248;6.930;2023-05-13T03:29:30;12.40;99.90
13322;DHT22;6730;46.248;6.930;2023-05-13T03:31:55;12.50;99.90
13322;DHT22;6730;46.248;6.930;2023-05-13T03:34:21;12.60;99.90
13322;DHT22;6730;46.248;6.930;2023-05-13T03:36:46;12.60;99.90
13322;DHT22;6730;46.248;6.930;2023-05-13T03:39:12;12.70;99.90
13322;DHT22;6730;46.248;6.930;2023-05-13T03:41:38;12.50;99.90
13322;DHT22;6730;46.248;6.930;2023-05-13T03:44:03;12.60;99.90
13322;DHT22;6730;46.248;6.930;2023-05-13T03:46:29;12.60;99.90
13322;DHT22;6730;46.248;6.930;2023-05-13T03:48:55;12.70;99.90
13322;DHT22;6730;46.248;6.930;2023-05-13T03:51:21;12.80;99.90
13322;DHT22;6730;46.248;6.930;2023-05-13T03:53:47;12.90;99.90
13322;DHT22;6730;46.248;6.930;2023-05-13T03:56:13;12.90;99.90
13322;DHT22;6730;46.248;6.930;2023-05-13T03:58:39;12.90;99.90
13322;DHT22;6730;46.248;6.930;2023-05-13T04:01:08;12.90;99.90
13322;DHT22;6730;46.248;6.930;2023-05-13T04:03:34;13.00;99.90
13322;DHT22;6730;46.248;6.930;2023-05-13T04:06:00;13.00;99.90
13322;DHT22;6730;46.248;6.930;2023-05-13T04:08:26;13.00;99.90
13322;DHT22;6730;46.248;6.930;2023-05-13T04:10:52;13.00;99.90
13322;DHT22;6730;46.248;6.930;2023-05-13T04:13:17;13.00;99.90
13322;DHT22;6730;46.248;6.930;2023-05-13T04:15:43;13.00;99.90
13322;DHT22;6730;46.248;6.930;2023-05-13T04:18:09;12.90;99.90
13322;DHT22;6730;46.248;6.930;2023-05-13T04:20:38;13.00;99.90
13322;DHT22;6730;46.248;6.930;2023-05-13T04:23:04;13.00;99.90
13322;DHT22;6730;46.248;6.930;2023-05-13T04:25:30;13.00;99.90
13322;DHT22;6730;46.248;6.930;2023-05-13T04:27:56;13.00;99.90
13322;DHT22;6730;46.248;6.930;2023-05-13T04:30:21;13.00;99.90
13322;DHT22;6730;46.248;6.930;2023-05-13T04:32:47;12.70;99.90
13322;DHT22;6730;46.248;6.930;2023-05-13T04:35:13;12.50;99.90
13322;DHT22;6730;46.248;6.930;2023-05-13T04:37:38;12.30;99.90
13322;DHT22;6730;46.248;6.930;2023-05-13T04:40:05;12.20;99.90
13322;DHT22;6730;46.248;6.930;2023-05-13T04:42:31;12.00;99.90
13322;DHT22;6730;46.248;6.930;2023-05-13T04:44:57;11.80;99.90
13322;DHT22;6730;46.248;6.930;2023-05-13T04:47:23;11.80;99.90
13322;DHT22;6730;46.248;6.930;2023-05-13T04:49:48;11.90;99.90
13322;DHT22;6730;46.248;6.930;2023-05-13T04:52:14;11.90;99.90
13322;DHT22;6730;46.248;6.930;2023-05-13T04:54:40;12.00;99.90
13322;DHT22;6730;46.248;6.930;2023-05-13T04:57:06;12.10;99.90
13322;DHT22;6730;46.248;6.930;2023-05-13T04:59:33;12.20;99.90
13322;DHT22;6730;46.248;6.930;2023-05-13T05:01:59;12.30;99.90
13322;DHT22;6730;46.248;6.930;2023-05-13T05:04:25;12.30;99.90
13322;DHT22;6730;46.248;6.930;2023-05-13T05:06:51;12.40;99.90
13322;DHT22;6730;46.248;6.930;2023-05-13T05:09:17;12.40;99.90
13322;DHT22;6730;46.248;6.930;2023-05-13T05:11:43;11.90;99.90
13322;DHT22;6730;46.248;6.930;2023-05-13T05:14:09;11.50;99.90
13322;DHT22;6730;46.248;6.930;2023-05-13T05:16:34;11.40;99.90
13322;DHT22;6730;46.248;6.930;2023-05-13T05:19:00;11.10;99.90
13322;DHT22;6730;46.248;6.930;2023-05-13T05:21:26;10.70;99.90
13322;DHT22;6730;46.248;6.930;2023-05-13T05:23:51;10.40;99.90
13322;DHT22;6730;46.248;6.930;2023-05-13T05:26:17;10.30;99.90
13322;DHT22;6730;46.248;6.930;2023-05-13T05:28:44;10.40;99.90
13322;DHT22;6730;46.248;6.930;2023-05-13T05:31:10;10.30;99.90
13322;DHT22;6730;46.248;6.930;2023-05-13T05:33:36;10.20;99.90
13322;DHT22;6730;46.248;6.930;2023-05-13T05:36:02;10.30;99.90
13322;DHT22;6730;46.248;6.930;2023-05-13T05:38:28;10.90;99.90
13322;DHT22;6730;46.248;6.930;2023-05-13T05:40:54;11.40;99.90
13322;DHT22;6730;46.248;6.930;2023-05-13T05:43:20;11.70;99.90
13322;DHT22;6730;46.248;6.930;2023-05-13T05:45:45;11.90;99.90
13322;DHT22;6730;46.248;6.930;2023-05-13T05:48:11;12.00;99.90
13322;DHT22;6730;46.248;6.930;2023-05-13T05:50:37;12.10;99.90
13322;DHT22;6730;46.248;6.930;2023-05-13T05:53:03;12.30;99.90
13322;DHT22;6730;46.248;6.930;2023-05-13T05:55:29;12.00;99.90
13322;DHT22;6730;46.248;6.930;2023-05-13T05:57:56;11.20;99.90
13322;DHT22;6730;46.248;6.930;2023-05-13T06:00:23;11.10;99.90
13322;DHT22;6730;46.248;6.930;2023-05-13T06:02:49;11.10;99.90
13322;DHT22;6730;46.248;6.930;2023-05-13T06:05:15;11.30;99.90
13322;DHT22;6730;46.248;6.930;2023-05-13T06:07:40;11.50;99.90
13322;DHT22;6730;46.248;6.930;2023-05-13T06:10:06;12.00;99.90
13322;DHT22;6730;46.248;6.930;2023-05-13T06:12:33;12.40;99.90
13322;DHT22;6730;46.248;6.930;2023-05-13T06:14:59;12.60;99.90
13322;DHT22;6730;46.248;6.930;2023-05-13T06:17:25;12.00;99.90
13322;DHT22;6730;46.248;6.930;2023-05-13T06:19:50;11.20;99.90
13322;DHT22;6730;46.248;6.930;2023-05-13T06:22:16;10.70;99.90
13322;DHT22;6730;46.248;6.930;2023-05-13T06:24:42;10.30;99.90
13322;DHT22;6730;46.248;6.930;2023-05-13T06:27:12;10.10;99.90
13322;DHT22;6730;46.248;6.930;2023-05-13T06:29:38;10.10;99.90
13322;DHT22;6730;46.248;6.930;2023-05-13T06:32:04;10.10;99.90
13322;DHT22;6730;46.248;6.930;2023-05-13T06:34:30;10.50;99.90
13322;DHT22;6730;46.248;6.930;2023-05-13T06:36:56;11.10;99.90
13322;DHT22;6730;46.248;6.930;2023-05-13T06:39:22;11.30;99.90
13322;DHT22;6730;46.248;6.930;2023-05-13T06:41:47;11.40;99.90
13322;DHT22;6730;46.248;6.930;2023-05-13T06:44:13;11.20;99.90
13322;DHT22;6730;46.248;6.930;2023-05-13T06:46:39;10.90;99.90
13322;DHT22;6730;46.248;6.930;2023-05-13T06:49:05;10.50;99.90
13322;DHT22;6730;46.248;6.930;2023-05-13T06:51:31;10.20;99.90
13322;DHT22;6730;46.248;6.930;2023-05-13T06:53:58;10.20;99.90
13322;DHT22;6730;46.248;6.930;2023-05-13T06:56:24;10.20;99.90
13322;DHT22;6730;46.248;6.930;2023-05-13T06:58:50;10.30;99.90
13322;DHT22;6730;46.248;6.930;2023-05-13T07:01:17;10.40;99.90
13322;DHT22;6730;46.248;6.930;2023-05-13T07:03:43;10.80;99.90
13322;DHT22;6730;46.248;6.930;2023-05-13T07:06:09;11.30;99.90
13322;DHT22;6730;46.248;6.930;2023-05-13T07:08:35;11.70;99.90
13322;DHT22;6730;46.248;6.930;2023-05-13T07:11:01;12.00;99.90
13322;DHT22;6730;46.248;6.930;2023-05-13T07:13:26;12.20;99.90
13322;DHT22;6730;46.248;6.930;2023-05-13T07:15:52;12.30;99.90
13322;DHT22;6730;46.248;6.930;2023-05-13T07:18:18;11.90;99.90
13322;DHT22;6730;46.248;6.930;2023-05-13T07:20:43;11.60;99.90
13322;DHT22;6730;46.248;6.930;2023-05-13T07:23:09;11.70;99.90
13322;DHT22;6730;46.248;6.930;2023-05-13T07:25:35;12.00;99.90
13322;DHT22;6730;46.248;6.930;2023-05-13T07:28:01;12.30;99.90
13322;DHT22;6730;46.248;6.930;2023-05-13T07:30:27;12.60;99.90
13322;DHT22;6730;46.248;6.930;2023-05-13T07:32:52;12.90;99.90
13322;DHT22;6730;46.248;6.930;2023-05-13T07:35:18;12.60;99.90
13322;DHT22;6730;46.248;6.930;2023-05-13T07:37:44;11.90;99.90
13322;DHT22;6730;46.248;6.930;2023-05-13T07:40:10;11.60;99.90
13322;DHT22;6730;46.248;6.930;2023-05-13T07:42:36;11.40;99.90
13322;DHT22;6730;46.248;6.930;2023-05-13T07:45:03;11.40;99.90
13322;DHT22;6730;46.248;6.930;2023-05-13T07:47:28;11.30;99.90
13322;DHT22;6730;46.248;6.930;2023-05-13T07:49:57;11.30;99.90
13322;DHT22;6730;46.248;6.930;2023-05-13T07:52:22;11.40;99.90
13322;DHT22;6730;46.248;6.930;2023-05-13T07:54:48;11.50;99.90
13322;DHT22;6730;46.248;6.930;2023-05-13T07:57:14;11.40;99.90
13322;DHT22;6730;46.248;6.930;2023-05-13T07:59:40;11.40;99.90
13322;DHT22;6730;46.248;6.930;2023-05-13T08:02:06;11.30;99.90
13322;DHT22;6730;46.248;6.930;2023-05-13T08:04:32;11.40;99.90
13322;DHT22;6730;46.248;6.930;2023-05-13T08:06:59;11.40;99.90
13322;DHT22;6730;46.248;6.930;2023-05-13T08:09:25;11.30;99.90
13322;DHT22;6730;46.248;6.930;2023-05-13T08:11:50;11.50;99.90
13322;DHT22;6730;46.248;6.930;2023-05-13T08:14:16;11.70;99.90
13322;DHT22;6730;46.248;6.930;2023-05-13T08:16:42;11.70;99.90
13322;DHT22;6730;46.248;6.930;2023-05-13T08:19:08;11.80;99.90
13322;DHT22;6730;46.248;6.930;2023-05-13T08:21:34;12.40;99.90
13322;DHT22;6730;46.248;6.930;2023-05-13T08:23:59;12.60;99.90
13322;DHT22;6730;46.248;6.930;2023-05-13T08:26:25;12.80;99.90
13322;DHT22;6730;46.248;6.930;2023-05-13T08:28:51;12.70;99.90
13322;DHT22;6730;46.248;6.930;2023-05-13T08:31:17;12.30;99.90
13322;DHT22;6730;46.248;6.930;2023-05-13T08:33:42;12.40;99.90
13322;DHT22;6730;46.248;6.930;2023-05-13T08:36:10;12.20;99.90
13322;DHT22;6730;46.248;6.930;2023-05-13T08:38:36;12.30;99.90
13322;DHT22;6730;46.248;6.930;2023-05-13T08:41:05;12.50;99.90
13322;DHT22;6730;46.248;6.930;2023-05-13T08:43:31;13.00;99.90
13322;DHT22;6730;46.248;6.930;2023-05-13T08:46:01;13.50;99.90
13322;DHT22;6730;46.248;6.930;2023-05-13T08:48:29;14.00;99.90
13322;DHT22;6730;46.248;6.930;2023-05-13T08:50:56;14.10;99.90
13322;DHT22;6730;46.248;6.930;2023-05-13T08:53:24;14.60;99.90
13322;DHT22;6730;46.248;6.930;2023-05-13T08:55:50;14.80;99.90
13322;DHT22;6730;46.248;6.930;2023-05-13T08:58:16;15.00;99.90
13322;DHT22;6730;46.248;6.930;2023-05-13T09:00:42;15.30;99.90
13322;DHT22;6730;46.248;6.930;2023-05-13T09:03:08;15.50;99.90
13322;DHT22;6730;46.248;6.930;2023-05-13T09:05:34;15.90;99.90
13322;DHT22;6730;46.248;6.930;2023-05-13T09:08:08;14.90;99.90
13322;DHT22;6730;46.248;6.930;2023-05-13T09:10:34;14.70;99.90
13322;DHT22;6730;46.248;6.930;2023-05-13T09:13:00;14.40;99.90
13322;DHT22;6730;46.248;6.930;2023-05-13T09:15:27;14.20;99.90
13322;DHT22;6730;46.248;6.930;2023-05-13T09:18:01;14.50;99.90
13322;DHT22;6730;46.248;6.930;2023-05-13T09:20:28;14.40;99.90
13322;DHT22;6730;46.248;6.930;2023-05-13T09:22:56;14.30;99.90
13322;DHT22;6730;46.248;6.930;2023-05-13T09:25:23;14.10;99.90
13322;DHT22;6730;46.248;6.930;2023-05-13T09:27:54;13.90;99.90
13322;DHT22;6730;46.248;6.930;2023-05-13T09:30:44;13.70;99.90
13322;DHT22;6730;46.248;6.930;2023-05-13T09:35:37;13.90;99.90
13322;DHT22;6730;46.248;6.930;2023-05-13T09:38:34;14.00;99.90
13322;DHT22;6730;46.248;6.930;2023-05-13T09:41:04;13.70;99.90
13322;DHT22;6730;46.248;6.930;2023-05-13T09:43:33;13.70;99.90
13322;DHT22;6730;46.248;6.930;2023-05-13T09:46:03;13.30;99.90
13322;DHT22;6730;46.248;6.930;2023-05-13T09:48:32;13.30;99.90
13322;DHT22;6730;46.248;6.930;2023-05-13T09:50:58;13.30;99.90
13322;DHT22;6730;46.248;6.930;2023-05-13T09:53:25;13.30;99.90
13322;DHT22;6730;46.248;6.930;2023-05-13T09:55:53;13.20;99.90
13322;DHT22;6730;46.248;6.930;2023-05-13T09:58:20;13.30;99.90
13322;DHT22;6730;46.248;6.930;2023-05-13T10:00:46;13.50;99.90
13322;DHT22;6730;46.248;6.930;2023-05-13T10:03:13;13.80;99.90
13322;DHT22;6730;46.248;6.930;2023-05-13T10:05:40;14.00;99.90
13322;DHT22;6730;46.248;6.930;2023-05-13T10:08:12;14.10;99.90
13322;DHT22;6730;46.248;6.930;2023-05-13T10:10:39;14.10;99.90
13322;DHT22;6730;46.248;6.930;2023-05-13T10:13:09;14.10;99.90
13322;DHT22;6730;46.248;6.930;2023-05-13T10:15:47;13.90;99.90
13322;DHT22;6730;46.248;6.930;2023-05-13T10:18:15;13.90;99.90
13322;DHT22;6730;46.248;6.930;2023-05-13T10:20:41;13.80;99.90
13322;DHT22;6730;46.248;6.930;2023-05-13T10:23:08;13.80;99.90
13322;DHT22;6730;46.248;6.930;2023-05-13T10:25:35;14.00;99.90
13322;DHT22;6730;46.248;6.930;2023-05-13T10:28:02;14.20;99.90
13322;DHT22;6730;46.248;6.930;2023-05-13T10:30:29;14.00;99.90
13322;DHT22;6730;46.248;6.930;2023-05-13T10:32:57;14.20;99.90
13322;DHT22;6730;46.248;6.930;2023-05-13T10:35:25;14.60;99.90
13322;DHT22;6730;46.248;6.930;2023-05-13T10:43:41;15.70;99.90
13322;DHT22;6730;46.248;6.930;2023-05-13T10:46:11;15.90;99.90
13322;DHT22;6730;46.248;6.930;2023-05-13T10:48:46;16.00;99.90
13322;DHT22;6730;46.248;6.930;2023-05-13T10:51:16;16.00;99.90
13322;DHT22;6730;46.248;6.930;2023-05-13T10:53:46;16.20;99.90
13322;DHT22;6730;46.248;6.930;2023-05-13T10:56:12;16.10;99.90
13322;DHT22;6730;46.248;6.930;2023-05-13T10:58:38;16.20;99.90
13322;DHT22;6730;46.248;6.930;2023-05-13T11:01:21;16.20;99.90
13322;DHT22;6730;46.248;6.930;2023-05-13T11:03:54;16.20;99.90
13322;DHT22;6730;46.248;6.930;2023-05-13T11:06:37;16.30;99.90
13322;DHT22;6730;46.248;6.930;2023-05-13T11:09:07;15.80;99.90
13322;DHT22;6730;46.248;6.930;2023-05-13T11:11:36;15.70;99.90
13322;DHT22;6730;46.248;6.930;2023-05-13T11:14:18;15.50;99.90
13322;DHT22;6730;46.248;6.930;2023-05-13T11:17:08;15.30;99.90
13322;DHT22;6730;46.248;6.930;2023-05-13T11:19:36;15.40;99.90
13322;DHT22;6730;46.248;6.930;2023-05-13T11:22:09;15.50;99.90
13322;DHT22;6730;46.248;6.930;2023-05-13T11:24:35;15.90;99.90
13322;DHT22;6730;46.248;6.930;2023-05-13T11:27:15;16.00;99.90
13322;DHT22;6730;46.248;6.930;2023-05-13T11:29:52;16.20;99.90
13322;DHT22;6730;46.248;6.930;2023-05-13T11:35:25;16.20;99.90
13322;DHT22;6730;46.248;6.930;2023-05-13T11:37:52;16.30;99.90
13322;DHT22;6730;46.248;6.930;2023-05-13T11:40:21;16.30;99.90
13322;DHT22;6730;46.248;6.930;2023-05-13T11:42:48;16.40;99.90
13322;DHT22;6730;46.248;6.930;2023-05-13T11:45:17;16.20;99.90
13322;DHT22;6730;46.248;6.930;2023-05-13T11:47:44;16.10;99.90
13322;DHT22;6730;46.248;6.930;2023-05-13T11:50:20;15.90;99.90
13322;DHT22;6730;46.248;6.930;2023-05-13T11:52:53;15.70;99.90
13322;DHT22;6730;46.248;6.930;2023-05-13T11:57:54;15.30;99.90
13322;DHT22;6730;46.248;6.930;2023-05-13T12:00:30;15.20;99.90
13322;DHT22;6730;46.248;6.930;2023-05-13T12:02:56;15.30;99.90
13322;DHT22;6730;46.248;6.930;2023-05-13T12:05:23;15.30;99.90
13322;DHT22;6730;46.248;6.930;2023-05-13T12:07:49;15.40;99.90
13322;DHT22;6730;46.248;6.930;2023-05-13T12:10:15;15.60;99.90
13322;DHT22;6730;46.248;6.930;2023-05-13T12:12:44;15.60;99.90
13322;DHT22;6730;46.248;6.930;2023-05-13T12:15:12;15.20;99.90
13322;DHT22;6730;46.248;6.930;2023-05-13T12:17:38;14.70;99.90
13322;DHT22;6730;46.248;6.930;2023-05-13T12:20:11;14.50;99.90
13322;DHT22;6730;46.248;6.930;2023-05-13T12:28:05;14.20;99.90
13322;DHT22;6730;46.248;6.930;2023-05-13T12:30:40;14.70;99.90
13322;DHT22;6730;46.248;6.930;2023-05-13T12:33:11;14.90;99.90
13322;DHT22;6730;46.248;6.930;2023-05-13T12:35:37;15.00;99.90
13322;DHT22;6730;46.248;6.930;2023-05-13T12:38:06;15.00;99.90
13322;DHT22;6730;46.248;6.930;2023-05-13T12:40:32;14.70;99.90
13322;DHT22;6730;46.248;6.930;2023-05-13T12:43:06;14.30;99.90
13322;DHT22;6730;46.248;6.930;2023-05-13T12:45:33;14.10;99.90
13322;DHT22;6730;46.248;6.930;2023-05-13T12:47:59;13.90;99.90
13322;DHT22;6730;46.248;6.930;2023-05-13T12:50:26;13.60;99.90
13322;DHT22;6730;46.248;6.930;2023-05-13T12:52:52;13.50;99.90
13322;DHT22;6730;46.248;6.930;2023-05-13T12:55:18;13.60;99.90
13322;DHT22;6730;46.248;6.930;2023-05-13T12:57:54;13.50;99.90
13322;DHT22;6730;46.248;6.930;2023-05-13T13:00:20;13.40;99.90
13322;DHT22;6730;46.248;6.930;2023-05-13T13:02:46;13.50;99.90
13322;DHT22;6730;46.248;6.930;2023-05-13T13:05:12;13.60;99.90
13322;DHT22;6730;46.248;6.930;2023-05-13T13:07:37;13.60;99.90
13322;DHT22;6730;46.248;6.930;2023-05-13T13:10:05;13.50;99.90
13322;DHT22;6730;46.248;6.930;2023-05-13T13:12:31;13.30;99.90
13322;DHT22;6730;46.248;6.930;2023-05-13T13:14:56;13.30;99.90
13322;DHT22;6730;46.248;6.930;2023-05-13T13:17:22;13.50;99.90
13322;DHT22;6730;46.248;6.930;2023-05-13T13:19:48;13.80;99.90
13322;DHT22;6730;46.248;6.930;2023-05-13T13:22:14;13.70;99.90
13322;DHT22;6730;46.248;6.930;2023-05-13T13:24:39;13.40;99.90
13322;DHT22;6730;46.248;6.930;2023-05-13T13:27:05;13.50;99.90
13322;DHT22;6730;46.248;6.930;2023-05-13T13:29:31;13.70;99.90
13322;DHT22;6730;46.248;6.930;2023-05-13T13:31:57;13.70;99.90
13322;DHT22;6730;46.248;6.930;2023-05-13T13:34:22;13.90;99.90
13322;DHT22;6730;46.248;6.930;2023-05-13T13:36:48;13.90;99.90
13322;DHT22;6730;46.248;6.930;2023-05-13T13:39:14;14.10;99.90
13322;DHT22;6730;46.248;6.930;2023-05-13T13:41:39;14.30;99.90
13322;DHT22;6730;46.248;6.930;2023-05-13T13:44:05;14.30;99.90
13322;DHT22;6730;46.248;6.930;2023-05-13T13:46:31;14.20;99.90
13322;DHT22;6730;46.248;6.930;2023-05-13T13:48:56;14.20;99.90
13322;DHT22;6730;46.248;6.930;2023-05-13T13:51:22;14.40;99.90
13322;DHT22;6730;46.248;6.930;2023-05-13T13:53:48;14.50;99.90
13322;DHT22;6730;46.248;6.930;2023-05-13T13:56:14;14.30;99.90
13322;DHT22;6730;46.248;6.930;2023-05-13T13:58:40;14.00;99.90
13322;DHT22;6730;46.248;6.930;2023-05-13T14:01:05;13.90;99.90
13322;DHT22;6730;46.248;6.930;2023-05-13T14:03:31;13.80;99.90
13322;DHT22;6730;46.248;6.930;2023-05-13T14:05:57;13.80;99.90
13322;DHT22;6730;46.248;6.930;2023-05-13T14:08:23;13.80;99.90
13322;DHT22;6730;46.248;6.930;2023-05-13T14:10:49;14.00;99.90
13322;DHT22;6730;46.248;6.930;2023-05-13T14:13:15;13.70;99.90
13322;DHT22;6730;46.248;6.930;2023-05-13T14:15:40;13.50;99.90
13322;DHT22;6730;46.248;6.930;2023-05-13T14:18:06;13.50;99.90
13322;DHT22;6730;46.248;6.930;2023-05-13T14:20:33;13.50;99.90
13322;DHT22;6730;46.248;6.930;2023-05-13T14:23:00;13.30;99.90
13322;DHT22;6730;46.248;6.930;2023-05-13T14:25:26;13.20;99.90
13322;DHT22;6730;46.248;6.930;2023-05-13T14:27:52;13.50;99.90
13322;DHT22;6730;46.248;6.930;2023-05-13T14:30:17;13.80;99.90
13322;DHT22;6730;46.248;6.930;2023-05-13T14:32:43;13.90;99.90
13322;DHT22;6730;46.248;6.930;2023-05-13T14:35:10;14.30;99.90
13322;DHT22;6730;46.248;6.930;2023-05-13T14:37:36;14.70;99.90
13322;DHT22;6730;46.248;6.930;2023-05-13T14:40:02;14.70;99.90
13322;DHT22;6730;46.248;6.930;2023-05-13T14:42:28;14.80;99.90
13322;DHT22;6730;46.248;6.930;2023-05-13T14:44:54;15.00;99.90
13322;DHT22;6730;46.248;6.930;2023-05-13T14:47:20;15.10;99.90
13322;DHT22;6730;46.248;6.930;2023-05-13T14:49:45;15.20;99.90
13322;DHT22;6730;46.248;6.930;2023-05-13T14:52:11;15.10;99.90
13322;DHT22;6730;46.248;6.930;2023-05-13T14:54:37;15.10;99.90
13322;DHT22;6730;46.248;6.930;2023-05-13T14:57:04;14.90;99.90
13322;DHT22;6730;46.248;6.930;2023-05-13T14:59:31;14.40;99.90
13322;DHT22;6730;46.248;6.930;2023-05-13T15:01:57;14.20;99.90
13322;DHT22;6730;46.248;6.930;2023-05-13T15:04:22;14.50;99.90
13322;DHT22;6730;46.248;6.930;2023-05-13T15:06:48;14.90;99.90
13322;DHT22;6730;46.248;6.930;2023-05-13T15:09:15;15.20;99.90
13322;DHT22;6730;46.248;6.930;2023-05-13T15:11:41;15.00;99.90
13322;DHT22;6730;46.248;6.930;2023-05-13T15:14:06;15.20;99.90
13322;DHT22;6730;46.248;6.930;2023-05-13T15:16:32;15.00;99.90
13322;DHT22;6730;46.248;6.930;2023-05-13T15:18:57;15.00;99.90
13322;DHT22;6730;46.248;6.930;2023-05-13T15:21:23;14.80;99.90
13322;DHT22;6730;46.248;6.930;2023-05-13T15:23:49;14.80;99.90
13322;DHT22;6730;46.248;6.930;2023-05-13T15:26:15;14.90;99.90
13322;DHT22;6730;46.248;6.930;2023-05-13T15:28:40;14.80;99.90
13322;DHT22;6730;46.248;6.930;2023-05-13T15:31:06;14.90;99.90
13322;DHT22;6730;46.248;6.930;2023-05-13T15:33:32;14.90;99.90
13322;DHT22;6730;46.248;6.930;2023-05-13T15:35:58;14.50;99.90
13322;DHT22;6730;46.248;6.930;2023-05-13T15:38:23;14.00;99.90
13322;DHT22;6730;46.248;6.930;2023-05-13T15:40:49;13.70;99.90
13322;DHT22;6730;46.248;6.930;2023-05-13T15:43:15;14.00;99.90
13322;DHT22;6730;46.248;6.930;2023-05-13T15:45:41;14.40;99.90
13322;DHT22;6730;46.248;6.930;2023-05-13T15:48:06;14.80;99.90
13322;DHT22;6730;46.248;6.930;2023-05-13T15:50:33;14.80;99.90
13322;DHT22;6730;46.248;6.930;2023-05-13T15:52:58;14.70;99.90
13322;DHT22;6730;46.248;6.930;2023-05-13T15:55:24;14.50;99.90
13322;DHT22;6730;46.248;6.930;2023-05-13T15:57:50;14.70;99.90
13322;DHT22;6730;46.248;6.930;2023-05-13T16:00:17;15.10;99.90
13322;DHT22;6730;46.248;6.930;2023-05-13T16:02:42;15.30;99.90
13322;DHT22;6730;46.248;6.930;2023-05-13T16:05:09;15.60;99.90
13322;DHT22;6730;46.248;6.930;2023-05-13T16:07:40;15.30;99.90
13322;DHT22;6730;46.248;6.930;2023-05-13T16:10:06;14.90;99.90